Main page
METAR-TAF:

METAR-TAF

Airports :

Federico García Lorca Airport

Granada, Spain

latitude: 37-11N, longitude: 003-47W, elevation: 567 m

Current weather observation

The report was made 15 minutes ago, at 01:30 UTC
Wind 3 kt from the South/Southwest, varying between East/Southeast and West/Southwest
Temperature 10°C
Humidity 87%
Pressure 1026 hPa
Visibility 10 km or more
Few clouds at a height of 7000 ft
Broken clouds at a height of 9000 ft

METAR: LEGR 030130Z AUTO 20003KT 120V240 9999 FEW070 BKN090 10/08 Q1026

Time: 02:45 (01:45 UTC)

Forecast

The report was made 5 hours and 45 minutes ago, at 20:00 UTC
Forecast valid from 02 at 21 UTC to 03 at 21 UTC
Wind 3 kt from variable directions
Visibility 10 km or more
Few clouds at a height of 5000 ft
Probability 40% :
Temporary
from 03 at 16 UTC to 03 at 19 UTC
Wind 10 kt from the South

TAF: LEGR 022000Z 0221/0321 VRB03KT 9999 FEW050 TX20/0315Z TN05/0307Z PROB40 TEMPO 0316/0319 19010KT

Weather observations and forecasts of more than 4000 airports (METAR and TAF reports).

The available stations are represented by yellow and red dots on the map.

Hover mouse over dot to see the name of the station.

Then click to see weather observations and forecasts.

To change the map : click on the green buttons with a black cross to zoom in, on the green button with a dash to zoom out, or on the green arrows for adjacent maps.


METAR-TAF: